Darstellungsparameter: Aktuell verwendete Einstellungen:
Skalierung der Graphiken ... ?
xyx+y,   Skalierungsfaktor:      Skalierung: Modus: x, Faktor: 1
Darstellungszeitraum ... ?
Vom - - bis: - -   Zeitraum: 02.02.2019 - 15.02.2019
Min/Max/Avg-Anzeige ... ?
Zeige MMA aktuell
Zeige MMA Monat
Zeige MMA alles
Zeige --A aktuell
Zeige --A Monat
Zeige --A alles
Keine MMA-Anzeige
MMA:
Minimum Maximum Average (ber die Originaldaten)
MMA-Basis: 02.02.2019 - 15.02.2019
Quicknavigation für Darstellung... ?
Tage:      1T, 2T, 3T, 5T -1T -2T -3T -5T +1T +2T +3T +5T
Wochen: 1W, 2W, 3W -1W -2W -3W +1W +2W +3W
Monate: 1M, 3M, 6M -1M -3M -6M +1M +3M +6M
Jahre:    1J, 3J, 5J, 10J -1J -3J -5J -10J +1J +3J +5J +10J
Nutze für die Darstellung ... ?
Originaldaten oder ...
Mittelwerte Minima Maxima auf...
Stundenbasis Tagesbasis Wochenbasis
Monatsbasis Jahresbasis      Datenbasis: Mittelwerte auf Stundenbasis
Darstellen als:
Statistik (Auto) Statistik J:M      Darstellung:
Zur Graphik,    zurück zur Übersicht aller Sensoren.
 
Tabellarische Datenbersicht: ?
 
Sensor: Nr:Datum:Temp:Feuchte:Taupunkt:
Aussen-T/F 1 02-02-2019 00:00:00 1.74167 C 97.0000 % 1.32 C
2 02-02-2019 01:00:00 1.825 C 97.0000 % 1.4 C
3 02-02-2019 02:00:00 1.825 C 97.0000 % 1.4 C
4 02-02-2019 03:00:00 1.75833 C 97.0000 % 1.33 C
5 02-02-2019 04:00:00 1.81667 C 97.0000 % 1.39 C
6 02-02-2019 05:00:00 1.70833 C 97.0000 % 1.28 C
7 02-02-2019 06:00:00 1.725 C 97.0000 % 1.3 C
8 02-02-2019 07:00:00 1.73333 C 97.0000 % 1.31 C
9 02-02-2019 08:00:00 1.8 C 97.0000 % 1.38 C
10 02-02-2019 09:00:00 2.09167 C 97.0000 % 1.67 C
11 02-02-2019 10:00:00 2.71667 C 97.5000 % 2.36 C
12 02-02-2019 11:00:00 3.05 C 97.0000 % 2.62 C
13 02-02-2019 12:00:00 3.31667 C 97.0000 % 2.89 C
14 02-02-2019 13:00:00 3.675 C 97.0000 % 3.24 C
15 02-02-2019 14:00:00 3.725 C 97.0000 % 3.29 C
16 02-02-2019 15:00:00 3.90833 C 97.0000 % 3.48 C
17 02-02-2019 16:00:00 3.675 C 97.0000 % 3.24 C
18 02-02-2019 17:00:00 3.25 C 97.0000 % 2.82 C
19 02-02-2019 18:00:00 3.15833 C 97.0000 % 2.73 C
20 02-02-2019 19:00:00 2.625 C 96.6667 % 2.15 C
21 02-02-2019 20:00:00 2.30833 C 96.1667 % 1.76 C
22 02-02-2019 21:00:00 2.1 C 96.0000 % 1.53 C
23 02-02-2019 22:00:00 1.875 C 96.0000 % 1.31 C
24 02-02-2019 23:00:00 1.8 C 96.3333 % 1.28 C
25 03-02-2019 00:00:00 1.875 C 96.5000 % 1.38 C
Sensor: Nr:Datum:Temp:Feuchte:Taupunkt:
Aussen-T/F 26 03-02-2019 01:00:00 2.06667 C 96.0000 % 1.5 C
27 03-02-2019 02:00:00 2.15833 C 94.3333 % 1.34 C
28 03-02-2019 03:00:00 2.18333 C 93.0000 % 1.17 C
29 03-02-2019 04:00:00 2.1 C 93.5000 % 1.16 C
30 03-02-2019 05:00:00 2.18333 C 93.0833 % 1.18 C
31 03-02-2019 06:00:00 2.19167 C 92.5000 % 1.11 C
32 03-02-2019 07:00:00 1.9 C 93.0000 % 0.89 C
33 03-02-2019 08:00:00 1.875 C 93.0000 % 0.87 C
34 03-02-2019 09:00:00 2.00833 C 93.1667 % 1.02 C
35 03-02-2019 10:00:00 2.46667 C 91.3333 % 1.2 C
36 03-02-2019 11:00:00 3.10833 C 88.7500 % 1.44 C
37 03-02-2019 12:00:00 3.58333 C 85.6667 % 1.41 C
38 03-02-2019 13:00:00 3.96667 C 83.3333 % 1.4 C
39 03-02-2019 14:00:00 4.1 C 83.0833 % 1.49 C
40 03-02-2019 15:00:00 4.50833 C 76.8333 % 0.81 C
41 03-02-2019 16:00:00 4.43333 C 76.0833 % 0.6 C
42 03-02-2019 17:00:00 4.26667 C 78.0000 % 0.78 C
43 03-02-2019 18:00:00 3.875 C 82.2500 % 1.13 C
44 03-02-2019 19:00:00 3.58333 C 84.8333 % 1.28 C
45 03-02-2019 20:00:00 3.19167 C 87.1667 % 1.27 C
46 03-02-2019 21:00:00 1.925 C 89.0833 % 0.32 C
47 03-02-2019 22:00:00 0.99167 C 91.2500 % -0.27 C
48 03-02-2019 23:00:00 0.25833 C 92.8333 % -0.76 C
49 04-02-2019 00:00:00 -0.31667 C 93.6667 % -1.21 C
50 04-02-2019 01:00:00 -0.05833 C 94.9167 % -0.77 C
Sensor: Nr:Datum:Temp:Feuchte:Taupunkt:
Aussen-T/F 51 04-02-2019 02:00:00 0 C 94.3333 % -0.8 C
52 04-02-2019 03:00:00 -0.2 C 94.0000 % -1.05 C
53 04-02-2019 04:00:00 -0.475 C 94.0833 % -1.31 C
54 04-02-2019 05:00:00 -0.03333 C 94.9167 % -0.75 C
55 04-02-2019 06:00:00 0.36667 C 95.0000 % -0.34 C
56 04-02-2019 07:00:00 0.51667 C 94.9167 % -0.2 C
57 04-02-2019 08:00:00 0.7 C 94.4167 % -0.09 C
58 04-02-2019 09:00:00 0.60833 C 93.9167 % -0.26 C
59 04-02-2019 10:00:00 0.9 C 94.0833 % 0.06 C
60 04-02-2019 11:00:00 2.04167 C 91.2500 % 0.77 C
61 04-02-2019 12:00:00 3.75 C 81.8333 % 0.94 C
62 04-02-2019 13:00:00 4.78333 C 72.5833 % 0.29 C
63 04-02-2019 14:00:00 5.30833 C 68.5000 % -0.01 C
64 04-02-2019 15:00:00 5.325 C 66.7500 % -0.35 C
65 04-02-2019 16:00:00 5 C 71.8333 % 0.35 C
66 04-02-2019 17:00:00 2.75 C 83.4167 % 0.23 C
67 04-02-2019 18:00:00 1.4 C 87.5000 % -0.44 C
68 04-02-2019 19:00:00 1.40833 C 89.5833 % -0.11 C
69 04-02-2019 20:00:00 2.00833 C 87.5833 % 0.17 C
70 04-02-2019 21:00:00 2.625 C 82.5833 % -0.03 C
71 04-02-2019 22:00:00 2.85 C 82.9167 % 0.24 C
72 04-02-2019 23:00:00 2.71667 C 84.9167 % 0.44 C
73 05-02-2019 00:00:00 2.99167 C 82.6667 % 0.34 C
74 05-02-2019 01:00:00 3.31667 C 80.8333 % 0.35 C
75 05-02-2019 02:00:00 3.41667 C 79.2500 % 0.17 C
Sensor: Nr:Datum:Temp:Feuchte:Taupunkt:
Aussen-T/F 76 05-02-2019 03:00:00 3.6 C 77.8333 % 0.1 C
77 05-02-2019 04:00:00 3.44167 C 78.9167 % 0.14 C
78 05-02-2019 05:00:00 3.65 C 76.5833 % -0.07 C
79 05-02-2019 06:00:00 3.39167 C 81.5000 % 0.53 C
80 05-02-2019 07:00:00 2.98333 C 84.8333 % 0.69 C
81 05-02-2019 08:00:00 2.98333 C 85.0000 % 0.72 C
82 05-02-2019 09:00:00 3.58333 C 80.4167 % 0.54 C
83 05-02-2019 10:00:00 4.175 C 78.0833 % 0.71 C
84 05-02-2019 11:00:00 5.00833 C 75.7500 % 1.09 C
85 05-02-2019 12:00:00 5.85833 C 74.6667 % 1.72 C
86 05-02-2019 13:00:00 6.30833 C 73.4167 % 1.91 C
87 05-02-2019 14:00:00 6.73333 C 72.8333 % 2.21 C
88 05-02-2019 15:00:00 7.03333 C 73.5833 % 2.64 C
89 05-02-2019 16:00:00 6.83333 C 76.5000 % 3 C
90 05-02-2019 17:00:00 6.15833 C 82.9167 % 3.48 C
91 05-02-2019 18:00:00 5.15833 C 86.2500 % 3.05 C
92 05-02-2019 19:00:00 4.75 C 87.5000 % 2.86 C
93 05-02-2019 20:00:00 4.35 C 88.2500 % 2.58 C
94 05-02-2019 21:00:00 4.10833 C 89.3333 % 2.51 C
95 05-02-2019 22:00:00 2.69167 C 89.6667 % 1.17 C
96 05-02-2019 23:00:00 1.725 C 91.6667 % 0.52 C
97 06-02-2019 00:00:00 0.43333 C 92.5833 % -0.62 C
98 06-02-2019 01:00:00 -0.225 C 94.0000 % -1.07 C
99 06-02-2019 02:00:00 -0.675 C 94.4167 % -1.46 C
100 06-02-2019 03:00:00 -1.16667 C 94.8333 % -1.89 C
Sensor: Nr:Datum:Temp:Feuchte:Taupunkt:
Aussen-T/F 101 06-02-2019 04:00:00 -1.425 C 95.0000 % -2.12 C
102 06-02-2019 05:00:00 -1.59167 C 95.0000 % -2.29 C
103 06-02-2019 06:00:00 -1.76667 C 95.0000 % -2.46 C
104 06-02-2019 07:00:00 -1.975 C 95.0000 % -2.67 C
105 06-02-2019 08:00:00 -2.21667 C 95.5833 % -2.83 C
106 06-02-2019 09:00:00 -1.36667 C 96.0000 % -1.92 C
107 06-02-2019 10:00:00 0.10833 C 96.1667 % -0.43 C
108 06-02-2019 11:00:00 1.675 C 94.4167 % 0.88 C
109 06-02-2019 12:00:00 2.98333 C 91.0833 % 1.67 C
110 06-02-2019 13:00:00 4.15 C 87.2500 % 2.23 C
111 06-02-2019 14:00:00 5.675 C 71.0833 % 0.86 C
112 06-02-2019 15:00:00 5.975 C 72.2500 % 1.37 C
113 06-02-2019 16:00:00 5.13333 C 78.0833 % 1.64 C
114 06-02-2019 17:00:00 3.79167 C 81.9167 % 1 C
115 06-02-2019 18:00:00 2.64167 C 86.0000 % 0.54 C
116 06-02-2019 19:00:00 2.14167 C 89.2500 % 0.56 C
117 06-02-2019 20:00:00 1.91667 C 89.5833 % 0.39 C
118 06-02-2019 21:00:00 1.53333 C 91.0833 % 0.24 C
119 06-02-2019 22:00:00 1.21667 C 91.7500 % 0.03 C
120 06-02-2019 23:00:00 1.26667 C 91.9167 % 0.1 C
121 07-02-2019 00:00:00 0.90833 C 91.6667 % -0.29 C
122 07-02-2019 01:00:00 1.20833 C 92.0000 % 0.06 C
123 07-02-2019 02:00:00 1.44167 C 91.4167 % 0.2 C
124 07-02-2019 03:00:00 1.73333 C 91.6667 % 0.53 C
125 07-02-2019 04:00:00 2.33333 C 90.4167 % 0.93 C
Sensor: Nr:Datum:Temp:Feuchte:Taupunkt:
Aussen-T/F 126 07-02-2019 05:00:00 2.65833 C 91.0000 % 1.34 C
127 07-02-2019 06:00:00 3.00833 C 88.5000 % 1.3 C
128 07-02-2019 07:00:00 3.5 C 89.4167 % 1.93 C
129 07-02-2019 08:00:00 3.99167 C 92.4167 % 2.88 C
130 07-02-2019 09:00:00 4.53333 C 94.6667 % 3.75 C
131 07-02-2019 10:00:00 5.175 C 95.0833 % 4.45 C
132 07-02-2019 11:00:00 5.675 C 95.6667 % 5.04 C
133 07-02-2019 12:00:00 6.775 C 95.0833 % 6.04 C
134 07-02-2019 13:00:00 7.54167 C 90.9167 % 6.16 C
135 07-02-2019 14:00:00 8.09167 C 85.1667 % 5.75 C
136 07-02-2019 15:00:00 8.53333 C 80.8333 % 5.43 C
137 07-02-2019 16:00:00 8.59167 C 79.2500 % 5.21 C
138 07-02-2019 17:00:00 7.51667 C 82.0833 % 4.66 C
139 07-02-2019 18:00:00 6.6 C 83.8333 % 4.07 C
140 07-02-2019 19:00:00 6.65 C 81.0833 % 3.64 C
141 07-02-2019 20:00:00 6.28333 C 83.0833 % 3.63 C
142 07-02-2019 21:00:00 6.9 C 82.1667 % 4.07 C
143 07-02-2019 22:00:00 6.44167 C 82.1667 % 3.63 C
144 07-02-2019 23:00:00 6.2 C 84.4167 % 3.77 C
145 08-02-2019 00:00:00 5.525 C 87.3333 % 3.59 C
146 08-02-2019 01:00:00 5.89167 C 86.4167 % 3.8 C
147 08-02-2019 02:00:00 5.8 C 86.8333 % 3.78 C
148 08-02-2019 03:00:00 5.75 C 87.5833 % 3.85 C
149 08-02-2019 04:00:00 6.28333 C 86.3333 % 4.17 C
150 08-02-2019 05:00:00 6.4 C 86.0833 % 4.25 C
Sensor: Nr:Datum:Temp:Feuchte:Taupunkt:
Aussen-T/F 151 08-02-2019 06:00:00 6.325 C 86.6667 % 4.27 C
152 08-02-2019 07:00:00 6.38333 C 86.7500 % 4.34 C
153 08-02-2019 08:00:00 6.675 C 86.0000 % 4.5 C
154 08-02-2019 09:00:00 7.05 C 85.5833 % 4.8 C
155 08-02-2019 10:00:00 7.425 C 85.0833 % 5.09 C
156 08-02-2019 11:00:00 8.45 C 82.4167 % 5.63 C
157 08-02-2019 12:00:00 9.44167 C 79.5000 % 6.08 C
158 08-02-2019 13:00:00 9.21667 C 79.5833 % 5.88 C
159 08-02-2019 14:00:00 8.40833 C 81.7500 % 5.48 C
160 08-02-2019 15:00:00 8.25 C 82.6667 % 5.48 C
161 08-02-2019 16:00:00 8.28333 C 82.7500 % 5.53 C
162 08-02-2019 17:00:00 8.21667 C 82.0000 % 5.33 C
163 08-02-2019 18:00:00 8.06667 C 82.3333 % 5.24 C
164 08-02-2019 19:00:00 8.21667 C 81.0000 % 5.16 C
165 08-02-2019 20:00:00 8.23333 C 80.3333 % 5.05 C
166 08-02-2019 21:00:00 8.075 C 80.0833 % 4.85 C
167 08-02-2019 22:00:00 7.75833 C 80.6667 % 4.65 C
168 08-02-2019 23:00:00 8.1 C 79.2500 % 4.73 C
169 09-02-2019 00:00:00 8.29167 C 77.9167 % 4.67 C
170 09-02-2019 01:00:00 7.79167 C 81.4167 % 4.81 C
171 09-02-2019 02:00:00 7.475 C 85.5000 % 5.21 C
172 09-02-2019 03:00:00 8.075 C 84.2500 % 5.58 C
173 09-02-2019 04:00:00 8.90833 C 82.0833 % 6.02 C
174 09-02-2019 05:00:00 8.25833 C 83.6667 % 5.66 C
175 09-02-2019 06:00:00 7.8 C 82.8333 % 5.07 C
Sensor: Nr:Datum:Temp:Feuchte:Taupunkt:
Aussen-T/F 176 09-02-2019 07:00:00 7.49167 C 85.5833 % 5.24 C
177 09-02-2019 08:00:00 7.225 C 86.4167 % 5.11 C
178 09-02-2019 09:00:00 7.73333 C 82.3333 % 4.92 C
179 09-02-2019 10:00:00 8.85 C 79.3333 % 5.47 C
180 09-02-2019 11:00:00 9.30833 C 77.6667 % 5.61 C
181 09-02-2019 12:00:00 9.975 C 73.9167 % 5.55 C
182 09-02-2019 13:00:00 10.73333 C 70.0833 % 5.51 C
183 09-02-2019 14:00:00 11.125 C 67.6667 % 5.38 C
184 09-02-2019 15:00:00 10.60833 C 68.4167 % 5.04 C
185 09-02-2019 16:00:00 10.06667 C 71.9167 % 5.24 C
186 09-02-2019 17:00:00 9.375 C 74.0000 % 4.98 C
187 09-02-2019 18:00:00 8.54167 C 78.1667 % 4.96 C
188 09-02-2019 19:00:00 7.86667 C 84.7500 % 5.46 C
189 09-02-2019 20:00:00 7.25 C 85.7500 % 5.03 C
190 09-02-2019 21:00:00 7.60833 C 85.9167 % 5.41 C
191 09-02-2019 22:00:00 8.15833 C 83.7500 % 5.58 C
192 09-02-2019 23:00:00 8.625 C 82.0000 % 5.73 C
193 10-02-2019 00:00:00 8.61667 C 82.0000 % 5.72 C
194 10-02-2019 01:00:00 7.85 C 83.9167 % 5.31 C
195 10-02-2019 02:00:00 7.41667 C 84.6667 % 5.01 C
196 10-02-2019 03:00:00 7.60833 C 84.1667 % 5.11 C
197 10-02-2019 04:00:00 6.98333 C 90.4167 % 5.53 C
198 10-02-2019 05:00:00 6.95833 C 93.6667 % 6.01 C
199 10-02-2019 06:00:00 7.625 C 94.0000 % 6.72 C
200 10-02-2019 07:00:00 8.38333 C 93.3333 % 7.37 C
Sensor: Nr:Datum:Temp:Feuchte:Taupunkt:
Aussen-T/F 201 10-02-2019 08:00:00 8.79167 C 91.7500 % 7.53 C
202 10-02-2019 09:00:00 9.49167 C 89.0833 % 7.79 C
203 10-02-2019 10:00:00 10.05833 C 88.6667 % 8.28 C
204 10-02-2019 11:00:00 9.725 C 90.7500 % 8.29 C
205 10-02-2019 12:00:00 9.65833 C 91.6667 % 8.37 C
206 10-02-2019 13:00:00 9.775 C 91.7500 % 8.5 C
207 10-02-2019 14:00:00 9.45833 C 90.5000 % 7.98 C
208 10-02-2019 15:00:00 8.78333 C 86.5833 % 6.67 C
209 10-02-2019 16:00:00 8.48333 C 86.8333 % 6.42 C
210 10-02-2019 17:00:00 7.95 C 86.3333 % 5.81 C
211 10-02-2019 18:00:00 6.475 C 90.0833 % 4.97 C
212 10-02-2019 19:00:00 6.41667 C 88.2500 % 4.62 C
213 10-02-2019 20:00:00 6.68333 C 87.6667 % 4.79 C
214 10-02-2019 21:00:00 6.14167 C 88.5833 % 4.4 C
215 10-02-2019 22:00:00 6.14167 C 83.8333 % 3.62 C
216 10-02-2019 23:00:00 5.58333 C 85.4167 % 3.34 C
217 11-02-2019 00:00:00 4.96667 C 89.0000 % 3.31 C
218 11-02-2019 01:00:00 4.3 C 92.4167 % 3.18 C
219 11-02-2019 02:00:00 3.93333 C 93.2500 % 2.94 C
220 11-02-2019 03:00:00 3.8 C 93.3333 % 2.83 C
221 11-02-2019 04:00:00 3.60833 C 93.7500 % 2.7 C
222 11-02-2019 05:00:00 3.85 C 94.0000 % 2.98 C
223 11-02-2019 06:00:00 3.825 C 94.0000 % 2.95 C
224 11-02-2019 07:00:00 4.06667 C 92.7500 % 3 C
225 11-02-2019 08:00:00 4.09167 C 91.0000 % 2.76 C
Sensor: Nr:Datum:Temp:Feuchte:Taupunkt:
Aussen-T/F 226 11-02-2019 09:00:00 4.20833 C 89.9167 % 2.7 C
227 11-02-2019 10:00:00 4.98333 C 86.3333 % 2.9 C
228 11-02-2019 11:00:00 5.94167 C 82.0833 % 3.12 C
229 11-02-2019 12:00:00 6.61667 C 78.4167 % 3.14 C
230 11-02-2019 13:00:00 7.29167 C 74.4167 % 3.05 C
231 11-02-2019 14:00:00 7.35833 C 72.9167 % 2.83 C
232 11-02-2019 15:00:00 7.35833 C 73.7500 % 2.99 C
233 11-02-2019 16:00:00 6.90833 C 79.0000 % 3.53 C
234 11-02-2019 17:00:00 6.2 C 83.7500 % 3.66 C
235 11-02-2019 18:00:00 5.73333 C 79.3333 % 2.44 C
236 11-02-2019 19:00:00 4.83333 C 84.6667 % 2.48 C
237 11-02-2019 20:00:00 4.15833 C 87.5000 % 2.27 C
238 11-02-2019 21:00:00 3.45 C 88.6667 % 1.76 C
239 11-02-2019 22:00:00 2.76667 C 90.0000 % 1.29 C
240 11-02-2019 23:00:00 2.56667 C 91.5833 % 1.34 C
241 12-02-2019 00:00:00 3.125 C 89.9167 % 1.64 C
242 12-02-2019 01:00:00 3.05833 C 89.8333 % 1.56 C
243 12-02-2019 02:00:00 2.8 C 90.8333 % 1.46 C
244 12-02-2019 03:00:00 2.63333 C 90.7500 % 1.28 C
245 12-02-2019 04:00:00 2.48333 C 91.3333 % 1.22 C
246 12-02-2019 05:00:00 2.63333 C 90.5000 % 1.24 C
247 12-02-2019 06:00:00 2.4 C 90.0833 % 0.94 C
248 12-02-2019 07:00:00 2.41667 C 90.0000 % 0.95 C
249 12-02-2019 08:00:00 2.275 C 90.0000 % 0.81 C
250 12-02-2019 09:00:00 2.98333 C 88.7500 % 1.31 C
Sensor: Nr:Datum:Temp:Feuchte:Taupunkt:
Aussen-T/F 251 12-02-2019 10:00:00 3.95833 C 86.3333 % 1.89 C
252 12-02-2019 11:00:00 4.65833 C 84.0833 % 2.21 C
253 12-02-2019 12:00:00 5.44167 C 82.2500 % 2.66 C
254 12-02-2019 13:00:00 6.30833 C 79.4167 % 3.02 C
255 12-02-2019 14:00:00 6.875 C 76.7500 % 3.08 C
256 12-02-2019 15:00:00 7.05 C 75.7500 % 3.07 C
257 12-02-2019 16:00:00 7.425 C 74.8333 % 3.26 C
258 12-02-2019 17:00:00 6.55833 C 77.3333 % 2.88 C
259 12-02-2019 18:00:00 4.35833 C 84.6667 % 2.01 C
260 12-02-2019 19:00:00 3.025 C 88.4167 % 1.3 C
261 12-02-2019 20:00:00 2.33333 C 90.3333 % 0.92 C
262 12-02-2019 21:00:00 1.59167 C 91.5000 % 0.36 C
263 12-02-2019 22:00:00 1.41667 C 92.8333 % 0.39 C
264 12-02-2019 23:00:00 1.375 C 93.2500 % 0.41 C
265 13-02-2019 00:00:00 1.25 C 93.0000 % 0.25 C
266 13-02-2019 01:00:00 0.85833 C 93.2500 % -0.11 C
267 13-02-2019 02:00:00 0.125 C 93.4167 % -0.81 C
268 13-02-2019 03:00:00 -0.31667 C 94.0000 % -1.16 C
269 13-02-2019 04:00:00 -0.33333 C 94.5833 % -1.09 C
270 13-02-2019 05:00:00 -0.46667 C 95.0000 % -1.17 C
271 13-02-2019 06:00:00 -0.45 C 95.1667 % -1.13 C
272 13-02-2019 07:00:00 0.26667 C 96.0000 % -0.29 C
273 13-02-2019 08:00:00 0.66667 C 95.6667 % 0.06 C
274 13-02-2019 09:00:00 1.00833 C 95.0833 % 0.31 C
275 13-02-2019 10:00:00 1.60833 C 93.6667 % 0.7 C
Sensor: Nr:Datum:Temp:Feuchte:Taupunkt:
Aussen-T/F 276 13-02-2019 11:00:00 2.325 C 91.3333 % 1.06 C
277 13-02-2019 12:00:00 3.58333 C 89.2500 % 1.98 C
278 13-02-2019 13:00:00 4.89167 C 84.6667 % 2.53 C
279 13-02-2019 14:00:00 5.41667 C 83.0833 % 2.78 C
280 13-02-2019 15:00:00 5.6 C 83.1667 % 2.97 C
281 13-02-2019 16:00:00 5.54167 C 85.7500 % 3.35 C
282 13-02-2019 17:00:00 4.69167 C 88.5000 % 2.96 C
283 13-02-2019 18:00:00 3.20833 C 90.5000 % 1.81 C
284 13-02-2019 19:00:00 1.85 C 91.6667 % 0.64 C
285 13-02-2019 20:00:00 1.15 C 92.9167 % 0.14 C
286 13-02-2019 21:00:00 0.55833 C 92.3333 % -0.54 C
287 13-02-2019 22:00:00 0.125 C 93.0000 % -0.87 C
288 13-02-2019 23:00:00 -0.45 C 93.0000 % -1.44 C
289 14-02-2019 00:00:00 -0.71667 C 93.2500 % -1.67 C
290 14-02-2019 01:00:00 -1.05833 C 93.9167 % -1.91 C
291 14-02-2019 02:00:00 -1.1 C 94.2500 % -1.9 C
292 14-02-2019 03:00:00 -1.53333 C 94.0833 % -2.36 C
293 14-02-2019 04:00:00 -1.775 C 94.8333 % -2.49 C
294 14-02-2019 05:00:00 -1.96667 C 95.0000 % -2.66 C
295 14-02-2019 06:00:00 -2.45 C 95.0000 % -3.14 C
296 14-02-2019 07:00:00 -2.65 C 95.1667 % -3.31 C
297 14-02-2019 08:00:00 -2.43333 C 95.5833 % -3.04 C
298 14-02-2019 09:00:00 -2.08333 C 96.0000 % -2.63 C
299 14-02-2019 10:00:00 -1.69167 C 96.0000 % -2.24 C
300 14-02-2019 11:00:00 -0.9 C 96.4167 % -1.4 C
Sensor: Nr:Datum:Temp:Feuchte:Taupunkt:
Aussen-T/F 301 14-02-2019 12:00:00 0.675 C 97.0000 % 0.25 C
302 14-02-2019 13:00:00 2.75833 C 96.9167 % 2.32 C
303 14-02-2019 14:00:00 4.65833 C 94.5000 % 3.85 C
304 14-02-2019 15:00:00 6.48333 C 90.3333 % 5.02 C
305 14-02-2019 16:00:00 6.08333 C 88.0833 % 4.26 C
306 14-02-2019 17:00:00 5.625 C 87.8333 % 3.77 C
307 14-02-2019 18:00:00 4.58333 C 86.5833 % 2.54 C
308 14-02-2019 19:00:00 3.30833 C 85.2500 % 1.07 C
309 14-02-2019 20:00:00 2.78333 C 86.9167 % 0.83 C
310 14-02-2019 21:00:00 1.55 C 89.4167 % 0 C
311 14-02-2019 22:00:00 0.49167 C 91.1667 % -0.78 C
312 14-02-2019 23:00:00 -0.05833 C 92.9167 % -1.06 C
313 15-02-2019 00:00:00 -0.55 C 93.7500 % -1.43 C
314 15-02-2019 01:00:00 -0.93333 C 94.2500 % -1.74 C
315 15-02-2019 02:00:00 -1.15 C 94.8333 % -1.87 C
316 15-02-2019 03:00:00 -1.40833 C 95.0000 % -2.1 C
317 15-02-2019 04:00:00 -1.50833 C 95.0000 % -2.2 C
318 15-02-2019 05:00:00 -1.88333 C 95.0000 % -2.58 C
319 15-02-2019 06:00:00 -2.075 C 95.1667 % -2.74 C
320 15-02-2019 07:00:00 -2.4 C 95.0000 % -3.09 C
321 15-02-2019 08:00:00 -2.2 C 96.0000 % -2.75 C
322 15-02-2019 09:00:00 -1.69167 C 96.0000 % -2.24 C
323 15-02-2019 10:00:00 -0.7 C 96.1667 % -1.23 C
324 15-02-2019 11:00:00 1.26667 C 97.0000 % 0.84 C
325 15-02-2019 12:00:00 3.41667 C 96.6667 % 2.94 C
Sensor: Nr:Datum:Temp:Feuchte:Taupunkt:
Aussen-T/F 326 15-02-2019 13:00:00 5.93333 C 91.5833 % 4.67 C
327 15-02-2019 14:00:00 8.25833 C 82.6667 % 5.49 C
328 15-02-2019 15:00:00 9.58333 C 77.4167 % 5.83 C
329 15-02-2019 16:00:00 10.65833 C 68.9167 % 5.2 C
330 15-02-2019 17:00:00 9.35833 C 71.6667 % 4.51 C
331 15-02-2019 18:00:00 7.275 C 76.0000 % 3.33 C
332 15-02-2019 19:00:00 6.16667 C 79.7500 % 2.94 C
333 15-02-2019 20:00:00 4.46667 C 84.5000 % 2.09 C
334 15-02-2019 21:00:00 3.15833 C 88.2500 % 1.41 C
335 15-02-2019 22:00:00 1.85 C 90.3333 % 0.44 C
336 15-02-2019 23:00:00 1.23333 C 92.0833 % 0.09 C

Maximal/Minimal-Werte vom 02.02.2019 - 15.02.2019

Sensor Min Max Avg
Temp
(Aussen-T/F)
-2.7 °C
14-02-2019  07:00:00
11.3 °C
15-02-2019  16:15:00
3.94 °C
Feuchte
(Aussen-T/F)
64 %
15-02-2019  16:05:00
98 %
02-02-2019  10:00:00
87.89 %
Taupunkt
(Aussen-T/F)
-3.31 C
14-02-2019  07:00:00
8.5 C
10-02-2019  13:00:00
2.05 C

Die Daten stammen von einer Davis Vantage Pro 2 Wetter-Station und werden unter Linux mit der Software wview2wettercgi und aufbereitet. Alle Angaben erfolgen ohne Gewähr für ihre Vollständigkeit oder Richtigkeit.
Kontakt: Rainer Krienke krienke@uni-koblenz.de . Meine Webseiten an der Uni Koblenz oder privat.
Version: $Revision: 0.78 $